Time;durP1;ratioP1;P1;durP2;ratioP2;P2;SDS_P1;SDS_P2;PMS_P1;PMS_P2;Temp;Humidity;BMP_temperature;BMP_pressure;BME280_temperature;BME280_humidity;BME280_pressure;Samples;Min_cycle;Max_cycle;Signal;HPM_P1;HPM_P2
2023/10/23 00:01:06;;;;;;;8.07;2.63;;;14.20;95.00;;;;;;5050554;28;20059;-53
2023/10/23 00:03:31;;;;;;;11.95;3.30;;;14.20;94.70;;;;;;5070866;28;20156;-53
2023/10/23 00:05:57;;;;;;;8.77;2.70;;;14.20;94.70;;;;;;5070440;28;20020;-52
2023/10/23 00:08:22;;;;;;;9.18;2.55;;;14.20;94.70;;;;;;5088563;28;20036;-53
2023/10/23 00:10:48;;;;;;;6.00;2.60;;;14.10;94.70;;;;;;5070530;28;20017;-53
2023/10/23 00:13:14;;;;;;;7.80;2.35;;;14.20;94.80;;;;;;5088329;28;20334;-53
2023/10/23 00:15:39;;;;;;;11.50;3.08;;;14.10;94.80;;;;;;5070378;28;20024;-53
2023/10/23 00:18:05;;;;;;;9.50;2.60;;;14.10;94.80;;;;;;5070357;28;20029;-53
2023/10/23 00:20:30;;;;;;;7.07;2.72;;;14.10;94.90;;;;;;5070352;28;20024;-53
2023/10/23 00:22:56;;;;;;;6.43;2.50;;;14.10;94.80;;;;;;5088393;28;20021;-53
2023/10/23 00:25:21;;;;;;;7.88;2.20;;;14.10;94.80;;;;;;5088362;28;20029;-53
2023/10/23 00:27:47;;;;;;;8.65;2.63;;;14.10;94.80;;;;;;5087871;28;20032;-53
2023/10/23 00:30:13;;;;;;;9.30;2.55;;;14.20;94.90;;;;;;5070367;28;20111;-53
2023/10/23 00:32:38;;;;;;;6.90;2.45;;;14.10;94.80;;;;;;5088223;28;20051;-53
2023/10/23 00:35:05;;;;;;;7.18;2.58;;;14.00;94.80;;;;;;5070084;28;20032;-53
2023/10/23 00:37:30;;;;;;;6.07;2.40;;;14.00;94.80;;;;;;5069906;28;20028;-53
2023/10/23 00:39:56;;;;;;;7.65;2.70;;;14.00;94.90;;;;;;5087929;28;20032;-52
2023/10/23 00:42:22;;;;;;;8.95;2.53;;;14.00;94.90;;;;;;5087999;28;20074;-52
2023/10/23 00:44:47;;;;;;;5.20;2.38;;;14.00;94.90;;;;;;5070014;28;20025;-53
2023/10/23 00:47:13;;;;;;;8.57;2.30;;;14.00;94.90;;;;;;5087934;28;20029;-53
2023/10/23 00:49:38;;;;;;;8.60;2.70;;;14.00;94.90;;;;;;5069915;28;20099;-53
2023/10/23 00:52:04;;;;;;;11.85;2.10;;;14.00;95.00;;;;;;5070016;28;20025;-53
2023/10/23 00:54:32;;;;;;;6.07;2.60;;;14.00;95.00;;;;;;5069699;28;20513;-52
2023/10/23 00:56:58;;;;;;;6.95;2.50;;;13.90;95.00;;;;;;5070120;28;20055;-52
2023/10/23 00:59:23;;;;;;;5.95;2.30;;;13.90;95.10;;;;;;5087661;28;20029;-52
2023/10/23 01:01:49;;;;;;;8.10;2.20;;;13.90;95.10;;;;;;5069768;28;20091;-52
2023/10/23 01:04:14;;;;;;;5.68;1.98;;;13.90;95.20;;;;;;5069542;28;20033;-53
2023/10/23 01:06:40;;;;;;;3.83;2.10;;;13.90;95.10;;;;;;5069521;28;20052;-52
2023/10/23 01:09:06;;;;;;;5.68;2.20;;;14.00;95.20;;;;;;5069582;28;20134;-52
2023/10/23 01:11:32;;;;;;;4.68;2.38;;;13.90;95.10;;;;;;5069439;28;20033;-53
2023/10/23 01:13:57;;;;;;;7.78;2.47;;;13.90;95.10;;;;;;5069485;28;20048;-53
2023/10/23 01:16:23;;;;;;;7.40;2.55;;;13.90;95.10;;;;;;5087214;28;20048;-52
2023/10/23 01:18:49;;;;;;;5.55;2.28;;;13.90;95.10;;;;;;5069343;28;20115;-52
2023/10/23 01:21:14;;;;;;;4.13;2.13;;;13.90;95.20;;;;;;5086980;28;20115;-53
2023/10/23 01:23:42;;;;;;;7.15;2.03;;;13.90;95.20;;;;;;5087176;28;20054;-53
2023/10/23 01:26:07;;;;;;;4.25;2.00;;;13.80;95.30;;;;;;5069079;28;20412;-52
2023/10/23 01:28:33;;;;;;;5.75;2.20;;;13.80;95.30;;;;;;5086781;28;20047;-53
2023/10/23 01:30:58;;;;;;;3.63;1.92;;;13.80;95.60;;;;;;5086965;28;20024;-52
2023/10/23 01:33:24;;;;;;;6.13;2.28;;;13.80;95.30;;;;;;5069109;28;20055;-53
2023/10/23 01:35:49;;;;;;;4.30;1.85;;;13.80;95.30;;;;;;5068837;28;20107;-53
2023/10/23 01:38:15;;;;;;;3.58;1.90;;;13.80;95.30;;;;;;5068327;28;20024;-53
2023/10/23 01:40:41;;;;;;;6.05;2.10;;;13.80;95.40;;;;;;5086588;28;20029;-53
2023/10/23 01:43:06;;;;;;;5.47;2.20;;;13.70;95.40;;;;;;5068951;28;20021;-53
2023/10/23 01:45:32;;;;;;;4.40;2.30;;;13.80;95.40;;;;;;5068638;28;20504;-52
2023/10/23 01:47:57;;;;;;;4.40;2.00;;;13.80;95.40;;;;;;5068636;28;20495;-53
2023/10/23 01:50:24;;;;;;;5.95;2.10;;;13.70;95.40;;;;;;5068784;28;20103;-52
2023/10/23 01:52:50;;;;;;;3.90;1.77;;;13.80;95.50;;;;;;5068558;28;20044;-53
2023/10/23 01:55:15;;;;;;;6.03;2.10;;;13.70;95.80;;;;;;5086587;28;20139;-53
2023/10/23 01:57:41;;;;;;;4.35;2.28;;;13.70;95.50;;;;;;5086510;28;20032;-53
2023/10/23 02:00:09;;;;;;;8.65;2.10;;;13.70;95.70;;;;;;5068608;28;20495;-52
2023/10/23 02:02:35;;;;;;;4.55;2.08;;;13.70;95.50;;;;;;5086576;28;20058;-53
2023/10/23 02:05:00;;;;;;;5.57;1.88;;;13.70;95.50;;;;;;5068517;28;20028;-53
2023/10/23 02:07:27;;;;;;;5.95;2.25;;;13.70;95.50;;;;;;5068428;28;20503;-52
2023/10/23 02:09:53;;;;;;;8.40;2.60;;;13.80;95.50;;;;;;5068642;28;20056;-53
2023/10/23 02:12:18;;;;;;;6.00;2.00;;;13.70;95.50;;;;;;5068570;28;20024;-52
2023/10/23 02:14:44;;;;;;;2.22;1.83;;;13.70;95.50;;;;;;5068496;28;20051;-52
2023/10/23 02:17:09;;;;;;;3.95;1.90;;;13.70;95.60;;;;;;5086395;28;20035;-53
2023/10/23 02:19:35;;;;;;;3.97;2.20;;;13.70;95.60;;;;;;5068449;28;20025;-53
2023/10/23 02:22:00;;;;;;;3.28;2.15;;;13.70;95.60;;;;;;5068158;28;20058;-53
2023/10/23 02:24:26;;;;;;;4.60;1.88;;;13.60;95.60;;;;;;5068275;28;20025;-53
2023/10/23 02:26:52;;;;;;;4.40;2.20;;;13.70;95.70;;;;;;5068169;28;20032;-53
2023/10/23 02:29:17;;;;;;;4.00;2.13;;;13.60;95.70;;;;;;5068310;28;20109;-53
2023/10/23 02:31:43;;;;;;;5.50;2.63;;;13.60;95.70;;;;;;5068370;28;20020;-53
2023/10/23 02:34:08;;;;;;;5.63;2.45;;;13.60;95.80;;;;;;5068283;28;20473;-53
2023/10/23 02:36:34;;;;;;;3.78;2.30;;;13.60;95.80;;;;;;5086226;28;20503;-53
2023/10/23 02:38:59;;;;;;;4.85;2.33;;;13.60;95.80;;;;;;5067982;28;20459;-53
2023/10/23 02:41:28;;;;;;;5.57;2.10;;;13.60;95.80;;;;;;5068104;28;20028;-53
2023/10/23 02:43:53;;;;;;;4.60;2.30;;;13.60;95.80;;;;;;5051626;28;20119;-53
2023/10/23 02:46:20;;;;;;;3.83;1.70;;;13.60;95.80;;;;;;5086337;28;20054;-52
2023/10/23 02:48:45;;;;;;;4.78;2.30;;;13.30;95.70;;;;;;5086073;28;20033;-53
2023/10/23 02:51:11;;;;;;;4.68;2.10;;;13.60;95.80;;;;;;5089116;28;20032;-53
2023/10/23 02:53:36;;;;;;;4.07;2.15;;;13.50;95.80;;;;;;5090004;28;20024;-53
2023/10/23 02:56:02;;;;;;;3.13;2.05;;;13.50;95.90;;;;;;5072049;28;20055;-53
2023/10/23 02:58:28;;;;;;;3.13;2.13;;;13.50;95.80;;;;;;5071883;28;20025;-53
2023/10/23 03:00:53;;;;;;;3.13;1.90;;;13.50;95.80;;;;;;5089875;28;20021;-53
2023/10/23 03:03:19;;;;;;;3.58;2.05;;;13.60;95.90;;;;;;5089938;28;20028;-53
2023/10/23 03:05:44;;;;;;;4.22;2.45;;;13.50;95.90;;;;;;5072069;28;20025;-53
2023/10/23 03:08:10;;;;;;;7.30;1.83;;;13.50;95.80;;;;;;5089828;28;20032;-53
2023/10/23 03:10:35;;;;;;;6.18;2.40;;;13.50;95.80;;;;;;5071835;28;20021;-53
2023/10/23 03:13:02;;;;;;;7.85;2.22;;;13.60;95.80;;;;;;5071757;28;20033;-53
2023/10/23 03:15:28;;;;;;;3.92;2.20;;;13.60;95.90;;;;;;5055080;28;20473;-53
2023/10/23 03:17:53;;;;;;;4.10;2.00;;;13.60;95.90;;;;;;5071443;28;20054;-53
2023/10/23 03:20:19;;;;;;;3.38;2.00;;;13.60;95.90;;;;;;5089470;28;20024;-53
2023/10/23 03:22:45;;;;;;;4.53;2.25;;;13.50;95.80;;;;;;5071156;28;20028;-53
2023/10/23 03:25:10;;;;;;;4.90;2.28;;;13.50;95.80;;;;;;5071328;28;20021;-53
2023/10/23 03:27:36;;;;;;;2.20;1.70;;;13.50;95.80;;;;;;5071236;28;20168;-53
2023/10/23 03:30:02;;;;;;;4.35;2.10;;;13.50;95.80;;;;;;5071550;28;20056;-53
2023/10/23 03:32:27;;;;;;;4.18;2.20;;;13.50;95.90;;;;;;5071279;28;20029;-53
2023/10/23 03:34:53;;;;;;;3.75;1.92;;;13.50;95.90;;;;;;5089310;28;20147;-53
2023/10/23 03:37:18;;;;;;;2.75;1.98;;;13.50;95.90;;;;;;5071347;28;20124;-53
2023/10/23 03:39:44;;;;;;;3.25;1.85;;;13.50;95.90;;;;;;5054433;28;20107;-53
2023/10/23 03:42:10;;;;;;;3.30;2.00;;;13.50;96.00;;;;;;5089161;28;20078;-53
2023/10/23 03:44:38;;;;;;;5.38;2.03;;;13.40;96.00;;;;;;5071222;28;20028;-53
2023/10/23 03:47:04;;;;;;;9.52;2.25;;;13.40;96.00;;;;;;5088937;28;20074;-53
2023/10/23 03:49:30;;;;;;;3.00;1.98;;;13.40;96.10;;;;;;5088937;28;20516;-53
2023/10/23 03:51:55;;;;;;;3.10;1.83;;;13.50;96.10;;;;;;5054560;28;20025;-53
2023/10/23 03:54:21;;;;;;;5.90;2.00;;;13.40;96.10;;;;;;5071032;28;20024;-53
2023/10/23 03:56:46;;;;;;;2.97;1.70;;;13.40;96.10;;;;;;5071215;28;20092;-53
2023/10/23 03:59:12;;;;;;;4.15;2.20;;;13.40;96.10;;;;;;5089303;28;20038;-52
2023/10/23 04:01:37;;;;;;;2.78;2.10;;;13.40;96.10;;;;;;5088244;28;20032;-53
2023/10/23 04:04:03;;;;;;;6.43;2.20;;;13.40;96.10;;;;;;5088665;28;20517;-53
2023/10/23 04:06:29;;;;;;;4.30;2.15;;;13.40;96.10;;;;;;5088594;28;20036;-53
2023/10/23 04:08:54;;;;;;;4.68;2.13;;;13.40;96.10;;;;;;5070602;28;20044;-53
2023/10/23 04:11:20;;;;;;;4.13;2.00;;;13.40;96.10;;;;;;5088461;28;20039;-53
2023/10/23 04:13:45;;;;;;;2.45;1.70;;;13.40;96.10;;;;;;5070654;28;20046;-53
2023/10/23 04:16:12;;;;;;;4.60;2.20;;;13.40;96.10;;;;;;5088236;28;20039;-53
2023/10/23 04:18:37;;;;;;;3.42;1.80;;;13.40;96.10;;;;;;5070468;28;20154;-53
2023/10/23 04:21:07;;;;;;;3.95;2.13;;;13.40;96.20;;;;;;5088240;28;20500;-53
2023/10/23 04:23:37;;;;;;;3.85;2.22;;;13.40;96.20;;;;;;5070353;28;20033;-53
2023/10/23 04:26:02;;;;;;;4.10;1.88;;;13.40;96.10;;;;;;5069931;28;20104;-53
2023/10/23 04:28:28;;;;;;;3.40;1.88;;;13.40;96.20;;;;;;5088282;28;20025;-52
2023/10/23 04:30:55;;;;;;;3.85;1.83;;;13.30;96.20;;;;;;5053624;28;20025;-53
2023/10/23 04:33:21;;;;;;;3.20;2.20;;;13.40;96.20;;;;;;5070098;28;20021;-53
2023/10/23 04:35:56;;;;;;;5.65;1.90;;;13.40;96.50;;;;;;5051979;28;20024;-52
2023/10/23 04:38:22;;;;;;;4.93;1.90;;;13.40;96.20;;;;;;5050035;28;20040;-52
2023/10/23 04:40:48;;;;;;;2.25;1.95;;;13.40;96.20;;;;;;5033384;28;20025;-53
2023/10/23 04:43:13;;;;;;;3.38;2.10;;;13.30;96.20;;;;;;5033454;28;20036;-53
2023/10/23 04:45:39;;;;;;;2.78;1.60;;;13.40;96.20;;;;;;5049914;28;20108;-53
2023/10/23 04:48:05;;;;;;;4.38;1.70;;;13.40;96.20;;;;;;5049690;28;20044;-53
2023/10/23 04:50:34;;;;;;;6.15;2.00;;;13.40;96.30;;;;;;5049614;28;20477;-52
2023/10/23 04:53:00;;;;;;;2.78;1.88;;;13.40;96.30;;;;;;5049956;28;20033;-53
2023/10/23 04:55:26;;;;;;;3.92;1.73;;;13.30;96.60;;;;;;5049578;28;20431;-53
2023/10/23 04:57:52;;;;;;;4.35;1.83;;;13.30;96.30;;;;;;5067429;28;20075;-52
2023/10/23 05:00:19;;;;;;;7.07;2.08;;;13.30;96.30;;;;;;5067327;28;20029;-52
2023/10/23 05:02:46;;;;;;;3.72;1.88;;;13.30;96.30;;;;;;5067600;28;20033;-53
2023/10/23 05:05:12;;;;;;;3.47;2.30;;;13.30;96.40;;;;;;5067532;28;20033;-53
2023/10/23 05:07:37;;;;;;;2.85;1.88;;;13.30;96.40;;;;;;5065875;28;20094;-53
2023/10/23 05:10:04;;;;;;;2.17;1.83;;;13.30;96.40;;;;;;5049383;28;20044;-52
2023/10/23 05:12:29;;;;;;;3.28;1.77;;;13.30;96.40;;;;;;5067162;28;20025;-53
2023/10/23 05:14:55;;;;;;;2.88;1.95;;;13.30;96.40;;;;;;5066291;28;20027;-53
2023/10/23 05:17:23;;;;;;;2.00;1.80;;;13.30;96.40;;;;;;5067439;28;20035;-53
2023/10/23 05:19:49;;;;;;;2.35;1.80;;;13.30;96.40;;;;;;5049203;28;20037;-53
2023/10/23 05:22:14;;;;;;;2.55;1.70;;;13.30;96.40;;;;;;5066999;28;20096;-53
2023/10/23 05:24:45;;;;;;;2.78;1.90;;;13.30;96.40;;;;;;5049116;28;20033;-53
2023/10/23 05:27:10;;;;;;;3.30;2.00;;;13.20;96.40;;;;;;5067108;28;20059;-53
2023/10/23 05:29:36;;;;;;;5.90;2.20;;;13.30;96.40;;;;;;5049043;28;20085;-53
2023/10/23 05:32:01;;;;;;;2.95;1.95;;;13.20;96.40;;;;;;5066879;28;20040;-53
2023/10/23 05:34:27;;;;;;;2.80;1.98;;;13.30;96.50;;;;;;5066945;28;20029;-53
2023/10/23 05:36:53;;;;;;;2.47;1.80;;;13.30;96.50;;;;;;5048811;28;20037;-53
2023/10/23 05:39:18;;;;;;;2.50;1.95;;;13.30;96.50;;;;;;5066858;28;20542;-52
2023/10/23 05:41:44;;;;;;;3.58;2.10;;;13.30;96.50;;;;;;5049070;28;20128;-53
2023/10/23 05:44:09;;;;;;;4.75;2.05;;;13.30;96.50;;;;;;5049274;28;20029;-52
2023/10/23 05:46:35;;;;;;;2.80;1.92;;;13.20;96.50;;;;;;5066695;28;20481;-53
2023/10/23 05:49:00;;;;;;;3.33;1.88;;;13.20;96.50;;;;;;5066650;28;20031;-53
2023/10/23 05:51:26;;;;;;;2.50;2.10;;;13.20;96.60;;;;;;5048778;28;20043;-53
2023/10/23 05:53:51;;;;;;;2.80;2.10;;;13.20;96.60;;;;;;5048691;28;20443;-53
2023/10/23 05:56:17;;;;;;;5.10;2.33;;;13.20;96.60;;;;;;5066601;28;20055;-53
2023/10/23 05:58:44;;;;;;;3.17;2.10;;;13.20;96.70;;;;;;5066425;28;20040;-53
2023/10/23 06:01:11;;;;;;;4.50;2.50;;;13.20;96.70;;;;;;5048942;28;20029;-53
2023/10/23 06:03:36;;;;;;;3.78;2.22;;;13.20;96.70;;;;;;5048733;28;20029;-52
2023/10/23 06:06:02;;;;;;;2.33;2.00;;;13.20;96.70;;;;;;5031854;28;20036;-53
2023/10/23 06:08:28;;;;;;;5.40;2.47;;;13.20;96.70;;;;;;5031963;28;20029;-53
2023/10/23 06:10:53;;;;;;;4.32;2.20;;;13.20;96.80;;;;;;5066039;28;20032;-53
2023/10/23 06:13:20;;;;;;;5.78;2.38;;;13.20;96.80;;;;;;5048513;28;20033;-52
2023/10/23 06:15:46;;;;;;;3.17;2.30;;;13.20;96.80;;;;;;5048729;28;20025;-53
2023/10/23 06:18:12;;;;;;;3.03;2.03;;;13.20;96.80;;;;;;5064781;28;20033;-53
2023/10/23 06:20:37;;;;;;;2.97;2.20;;;13.20;96.90;;;;;;5048112;28;20035;-53
2023/10/23 06:23:03;;;;;;;4.22;2.30;;;13.20;96.90;;;;;;5066196;28;20044;-52
2023/10/23 06:25:29;;;;;;;3.78;2.10;;;13.20;96.90;;;;;;5048109;28;20025;-53
2023/10/23 06:27:55;;;;;;;4.53;2.25;;;13.20;96.90;;;;;;5048410;28;20044;-53
2023/10/23 06:30:21;;;;;;;3.55;2.30;;;13.20;96.90;;;;;;5065804;28;20021;-53
2023/10/23 06:32:47;;;;;;;6.43;2.30;;;13.20;96.90;;;;;;5066529;28;20029;-53
2023/10/23 06:35:13;;;;;;;4.20;2.47;;;13.20;96.90;;;;;;5048591;28;20207;-53
2023/10/23 06:37:38;;;;;;;5.22;2.47;;;13.20;97.00;;;;;;5065695;28;20053;-53
2023/10/23 06:40:05;;;;;;;6.45;2.60;;;13.20;97.00;;;;;;5047446;28;20033;-53
2023/10/23 06:42:30;;;;;;;8.02;2.53;;;13.20;97.00;;;;;;5048224;28;20032;-52
2023/10/23 06:44:57;;;;;;;11.48;3.08;;;13.20;97.00;;;;;;5065867;28;20029;-53
2023/10/23 06:47:22;;;;;;;6.60;2.85;;;13.20;97.20;;;;;;5048056;28;20391;-53
2023/10/23 06:49:48;;;;;;;9.93;2.97;;;13.30;97.20;;;;;;5048009;28;20112;-52
2023/10/23 06:52:14;;;;;;;5.25;2.55;;;13.20;97.20;;;;;;5048257;28;20024;-53
2023/10/23 06:54:39;;;;;;;5.97;2.92;;;13.20;97.20;;;;;;5048046;28;20029;-52
2023/10/23 06:57:08;;;;;;;5.85;2.55;;;13.30;97.50;;;;;;5048253;28;20028;-53
2023/10/23 06:59:34;;;;;;;5.75;2.60;;;13.20;97.20;;;;;;5066126;28;20037;-53
2023/10/23 07:02:02;;;;;;;10.45;2.90;;;13.20;97.30;;;;;;5047536;28;20055;-53
2023/10/23 07:04:28;;;;;;;10.98;2.90;;;13.20;97.30;;;;;;5065825;28;20067;-53
2023/10/23 07:06:54;;;;;;;4.50;2.63;;;13.30;97.40;;;;;;5065614;28;20040;-53
2023/10/23 07:09:20;;;;;;;6.25;2.88;;;13.20;97.40;;;;;;5047856;28;20109;-53
2023/10/23 07:11:49;;;;;;;5.88;3.00;;;13.20;97.50;;;;;;5047614;28;20020;-53
2023/10/23 07:14:15;;;;;;;5.03;2.72;;;13.30;97.50;;;;;;5065890;28;20029;-53
2023/10/23 07:16:40;;;;;;;13.07;2.83;;;13.20;97.50;;;;;;5065778;28;20055;-53
2023/10/23 07:19:06;;;;;;;11.05;2.97;;;13.20;97.50;;;;;;5065479;28;20037;-53
2023/10/23 07:21:32;;;;;;;6.55;3.25;;;13.30;97.60;;;;;;5047192;28;20041;-53
2023/10/23 07:23:57;;;;;;;8.15;3.05;;;13.30;97.60;;;;;;5047484;28;20041;-53
2023/10/23 07:26:23;;;;;;;9.90;3.58;;;13.20;97.60;;;;;;5047337;28;20029;-53
2023/10/23 07:28:50;;;;;;;10.75;3.50;;;13.30;97.70;;;;;;5065332;28;20041;-53
2023/10/23 07:31:16;;;;;;;14.65;3.40;;;13.30;97.70;;;;;;5047616;28;20025;-52
2023/10/23 07:33:41;;;;;;;10.48;3.55;;;13.30;97.70;;;;;;5065512;28;20059;-53
2023/10/23 07:36:09;;;;;;;12.27;3.47;;;13.30;97.70;;;;;;5047536;28;20036;-53
2023/10/23 07:38:35;;;;;;;5.63;3.10;;;13.30;97.70;;;;;;5068753;28;20045;-52
2023/10/23 07:41:01;;;;;;;13.23;4.03;;;13.30;97.80;;;;;;5068995;28;20029;-56
2023/10/23 07:43:27;;;;;;;12.32;3.10;;;13.30;97.80;;;;;;5051218;28;20048;-56
2023/10/23 07:45:53;;;;;;;10.77;3.53;;;13.30;97.80;;;;;;5067480;28;20060;-56
2023/10/23 07:48:20;;;;;;;14.82;3.95;;;13.30;97.80;;;;;;5051316;28;20032;-56
2023/10/23 07:50:46;;;;;;;12.88;3.70;;;13.30;97.90;;;;;;5068845;28;20048;-56
2023/10/23 07:53:11;;;;;;;10.05;3.60;;;13.40;97.90;;;;;;5068705;28;20029;-55
2023/10/23 07:55:37;;;;;;;24.23;5.07;;;13.40;97.90;;;;;;5050795;28;20025;-56
2023/10/23 07:58:03;;;;;;;28.92;5.30;;;13.40;98.00;;;;;;5050980;28;20121;-56
2023/10/23 08:00:28;;;;;;;25.52;4.85;;;13.40;98.20;;;;;;5050715;28;20029;-56
2023/10/23 08:02:54;;;;;;;18.17;4.70;;;13.40;98.40;;;;;;5050836;28;20037;-56
2023/10/23 08:05:20;;;;;;;18.30;4.22;;;13.40;98.50;;;;;;5033902;28;20052;-56
2023/10/23 08:07:45;;;;;;;25.50;5.60;;;13.40;98.40;;;;;;5068377;28;20033;-55
2023/10/23 08:10:11;;;;;;;24.15;5.88;;;13.40;98.50;;;;;;5067009;28;20049;-56
2023/10/23 08:12:37;;;;;;;23.85;6.13;;;13.40;98.60;;;;;;5050620;28;20025;-56
2023/10/23 08:15:02;;;;;;;19.38;5.28;;;13.40;98.70;;;;;;5050611;28;20039;-56
2023/10/23 08:17:28;;;;;;;18.95;5.78;;;13.40;98.60;;;;;;5050452;28;20025;-56
2023/10/23 08:19:54;;;;;;;26.52;5.70;;;13.50;98.50;;;;;;5050392;28;20025;-56
2023/10/23 08:22:20;;;;;;;61.55;8.60;;;13.50;98.50;;;;;;5050207;28;20065;-56
2023/10/23 08:24:46;;;;;;;41.08;7.50;;;13.50;98.50;;;;;;5050314;28;20025;-56
2023/10/23 08:27:11;;;;;;;32.83;6.80;;;13.50;98.50;;;;;;5068183;28;20120;-56
2023/10/23 08:29:37;;;;;;;38.10;6.78;;;13.50;98.50;;;;;;5033824;28;20033;-56
2023/10/23 08:32:03;;;;;;;25.63;6.70;;;13.60;98.50;;;;;;5050251;28;20033;-56
2023/10/23 08:34:28;;;;;;;29.20;6.10;;;13.50;98.50;;;;;;5066479;28;20025;-56
2023/10/23 08:36:54;;;;;;;30.23;6.70;;;13.50;98.50;;;;;;5050685;28;20453;-56
2023/10/23 08:39:19;;;;;;;25.73;6.22;;;13.60;98.50;;;;;;5033364;28;20029;-56
2023/10/23 08:41:45;;;;;;;28.90;5.93;;;13.50;98.40;;;;;;5049901;28;20381;-56
2023/10/23 08:44:11;;;;;;;26.48;6.13;;;13.60;98.50;;;;;;5050158;28;20025;-56
2023/10/23 08:46:37;;;;;;;35.47;6.15;;;13.60;98.70;;;;;;5049679;28;20021;-56
2023/10/23 08:49:03;;;;;;;40.28;6.78;;;13.60;98.70;;;;;;5049585;28;20036;-55
2023/10/23 08:51:29;;;;;;;26.23;5.93;;;13.60;98.60;;;;;;5049804;28;20033;-56
2023/10/23 08:53:56;;;;;;;26.02;5.50;;;13.60;98.60;;;;;;5049393;28;20112;-56
2023/10/23 08:56:22;;;;;;;29.35;5.57;;;13.60;98.60;;;;;;5049518;28;20126;-56
2023/10/23 08:58:55;;;;;;;30.02;5.68;;;13.70;98.50;;;;;;5032932;28;20413;-56
2023/10/23 09:01:21;;;;;;;36.90;6.30;;;13.70;98.50;;;;;;5049444;28;20029;-56
2023/10/23 09:03:46;;;;;;;29.20;5.85;;;13.60;98.40;;;;;;5049320;28;20047;-56
2023/10/23 09:06:16;;;;;;;15.85;5.38;;;13.70;98.40;;;;;;5049413;28;20035;-56
2023/10/23 09:08:42;;;;;;;27.92;5.45;;;13.70;98.40;;;;;;5049396;28;20028;-56
2023/10/23 09:11:08;;;;;;;25.70;5.95;;;13.70;98.30;;;;;;5050379;28;20021;-56
2023/10/23 09:13:38;;;;;;;23.92;5.22;;;13.70;98.40;;;;;;5052754;28;20115;-56
2023/10/23 09:16:10;;;;;;;20.85;4.97;;;13.80;98.40;;;;;;5087409;28;20023;-56
2023/10/23 09:18:46;;;;;;;19.77;4.85;;;13.70;98.20;;;;;;5069278;28;20024;-56
2023/10/23 09:21:12;;;;;;;27.15;5.45;;;13.80;98.10;;;;;;5052020;28;20044;-55
2023/10/23 09:23:53;;;;;;;26.98;6.85;;;13.80;98.10;;;;;;5085672;28;20020;-56
2023/10/23 09:26:22;;;;;;;27.80;5.90;;;13.80;98.40;;;;;;5069365;28;20040;-56
2023/10/23 09:28:49;;;;;;;25.52;5.20;;;13.80;98.20;;;;;;5069211;28;20028;-55
2023/10/23 09:31:15;;;;;;;26.70;4.75;;;13.80;98.20;;;;;;5052617;28;20029;-56
2023/10/23 09:33:41;;;;;;;24.85;5.07;;;13.80;98.10;;;;;;5069370;28;20116;-56
2023/10/23 09:36:09;;;;;;;13.43;5.20;;;13.90;98.00;;;;;;5052481;28;20021;-54
2023/10/23 09:38:35;;;;;;;29.23;5.00;;;13.90;97.90;;;;;;5069464;28;20036;-56
2023/10/23 09:41:00;;;;;;;30.67;5.50;;;13.90;97.90;;;;;;5052723;28;20127;-56
2023/10/23 09:43:26;;;;;;;30.35;6.13;;;13.90;97.90;;;;;;5068505;28;20051;-56
2023/10/23 09:45:52;;;;;;;29.42;6.45;;;13.90;98.00;;;;;;5068019;28;20042;-56
2023/10/23 09:48:18;;;;;;;34.85;6.10;;;13.90;98.00;;;;;;5068545;28;20044;-56
2023/10/23 09:50:44;;;;;;;37.50;6.82;;;14.00;98.00;;;;;;5068651;28;20471;-56
2023/10/23 09:53:10;;;;;;;161.82;16.92;;;14.00;98.00;;;;;;5051950;28;20033;-56
2023/10/23 09:55:36;;;;;;;68.22;9.50;;;14.10;98.00;;;;;;5051800;28;20028;-56
2023/10/23 09:58:03;;;;;;;36.15;7.57;;;14.10;98.00;;;;;;5051698;28;20024;-55
2023/10/23 10:00:29;;;;;;;37.17;7.22;;;14.10;97.90;;;;;;5051113;28;20468;-56
2023/10/23 10:02:55;;;;;;;72.97;10.27;;;14.10;97.80;;;;;;5068160;28;20039;-56
2023/10/23 10:05:30;;;;;;;55.75;8.00;;;14.10;97.80;;;;;;5034784;28;20052;-56
2023/10/23 10:08:03;;;;;;;63.33;9.95;;;14.20;97.70;;;;;;5067985;28;20029;-56
2023/10/23 10:10:29;;;;;;;57.00;8.40;;;14.20;97.60;;;;;;5051238;28;20044;-56
2023/10/23 10:12:55;;;;;;;67.38;10.60;;;14.20;97.50;;;;;;5051469;28;20040;-56
2023/10/23 10:15:23;;;;;;;66.93;9.23;;;14.20;97.40;;;;;;5085984;28;20028;-56
2023/10/23 10:17:49;;;;;;;68.65;10.95;;;14.30;97.50;;;;;;5051059;28;20040;-56
2023/10/23 10:20:15;;;;;;;77.38;10.68;;;14.30;97.50;;;;;;5068133;28;20028;-56
2023/10/23 10:22:42;;;;;;;57.58;10.23;;;14.40;97.70;;;;;;5050703;28;20373;-56
2023/10/23 10:25:09;;;;;;;75.95;10.68;;;14.40;97.80;;;;;;5085652;28;20052;-56
2023/10/23 10:27:35;;;;;;;69.28;8.93;;;14.30;97.70;;;;;;5051388;28;20401;-56
2023/10/23 10:30:04;;;;;;;43.08;7.85;;;14.40;97.70;;;;;;5051091;28;20028;-56
2023/10/23 10:32:30;;;;;;;61.13;10.05;;;14.40;97.60;;;;;;5051750;28;20035;-56
2023/10/23 10:34:57;;;;;;;70.00;9.82;;;14.40;97.50;;;;;;5051216;28;20093;-56
2023/10/23 10:37:28;;;;;;;62.58;10.18;;;14.50;97.60;;;;;;5034569;28;20037;-56
2023/10/23 10:39:56;;;;;;;81.00;10.73;;;14.50;97.60;;;;;;5085885;28;20111;-56
2023/10/23 10:42:24;;;;;;;99.53;12.05;;;14.50;97.40;;;;;;5085719;28;20456;-56
2023/10/23 10:44:57;;;;;;;83.53;11.68;;;14.50;97.40;;;;;;5051036;28;20040;-56
2023/10/23 10:47:52;;;;;;;91.70;12.23;;;14.50;97.60;;;;;;5034182;28;20060;-56
2023/10/23 10:50:32;;;;;;;82.28;12.23;;;14.50;97.60;;;;;;5065124;28;20043;-56
2023/10/23 10:53:04;;;;;;;75.53;10.55;;;14.60;97.40;;;;;;5050805;28;20067;-56
2023/10/23 10:55:30;;;;;;;88.93;11.75;;;14.50;97.40;;;;;;5085128;28;20384;-56
2023/10/23 10:57:56;;;;;;;119.50;14.13;;;14.50;97.30;;;;;;5051187;28;20048;-56
2023/10/23 11:00:24;;;;;;;76.80;12.05;;;14.60;97.30;;;;;;5050820;28;20020;-56
2023/10/23 11:02:50;;;;;;;71.03;10.85;;;14.60;97.40;;;;;;5051745;28;20028;-56
2023/10/23 11:05:16;;;;;;;76.78;10.70;;;14.60;97.40;;;;;;5067633;28;20032;-56
2023/10/23 11:07:41;;;;;;;85.00;10.65;;;14.60;97.40;;;;;;5066408;28;20123;-57
2023/10/23 11:10:10;;;;;;;86.43;12.85;;;14.60;97.30;;;;;;5085692;28;20029;-57
2023/10/23 11:12:35;;;;;;;70.25;11.48;;;14.60;97.20;;;;;;5071155;28;20025;-57
2023/10/23 11:15:04;;;;;;;60.70;9.90;;;14.70;97.20;;;;;;5072730;28;20025;-57
2023/10/23 11:17:29;;;;;;;99.82;13.80;;;14.70;97.40;;;;;;5089506;28;20036;-57
2023/10/23 11:19:55;;;;;;;87.93;13.77;;;14.70;97.20;;;;;;5071339;28;20028;-57
2023/10/23 11:22:24;;;;;;;91.65;12.75;;;14.70;97.20;;;;;;5041428;28;20052;-57
2023/10/23 11:24:49;;;;;;;74.63;11.68;;;14.70;97.20;;;;;;5056295;28;20047;-57
2023/10/23 11:27:15;;;;;;;72.88;9.90;;;14.80;97.10;;;;;;5086860;28;20024;-57
2023/10/23 11:29:42;;;;;;;81.65;11.52;;;14.80;97.00;;;;;;5052495;28;20039;-57
2023/10/23 11:32:08;;;;;;;70.05;11.50;;;14.80;96.90;;;;;;5048777;28;20032;-57
2023/10/23 11:34:40;;;;;;;76.22;11.48;;;14.90;97.00;;;;;;5037660;28;20055;-58
2023/10/23 11:37:06;;;;;;;70.05;12.23;;;14.90;97.10;;;;;;5063649;28;20024;-56
2023/10/23 11:39:32;;;;;;;79.38;11.73;;;15.00;97.10;;;;;;5052593;28;20035;-52
2023/10/23 11:41:58;;;;;;;87.20;11.85;;;15.00;97.00;;;;;;5064793;28;20020;-52
2023/10/23 11:44:27;;;;;;;65.88;11.07;;;15.00;96.90;;;;;;5059608;28;20063;-52
2023/10/23 11:46:53;;;;;;;98.10;12.13;;;15.10;96.80;;;;;;5068685;28;20051;-52
2023/10/23 11:49:20;;;;;;;88.72;12.18;;;15.10;96.80;;;;;;5051643;28;20029;-52
2023/10/23 11:51:46;;;;;;;78.80;10.52;;;15.10;96.70;;;;;;5057627;28;20039;-52
2023/10/23 11:54:11;;;;;;;78.05;11.15;;;15.10;96.60;;;;;;5059238;28;20170;-52
2023/10/23 11:56:37;;;;;;;106.75;12.73;;;15.10;96.40;;;;;;5096912;28;20480;-52
2023/10/23 11:59:04;;;;;;;110.57;14.93;;;15.20;96.40;;;;;;5065658;28;20040;-52
2023/10/23 12:01:30;;;;;;;96.35;13.30;;;15.20;96.40;;;;;;5069070;28;20031;-52
2023/10/23 12:03:56;;;;;;;81.72;11.65;;;15.20;96.40;;;;;;5069293;28;20039;-52
2023/10/23 12:06:21;;;;;;;86.63;12.68;;;15.20;96.30;;;;;;5082885;28;20024;-52
2023/10/23 12:08:47;;;;;;;81.90;12.00;;;15.30;96.40;;;;;;5075594;28;20114;-53
2023/10/23 12:11:12;;;;;;;70.60;10.88;;;15.30;96.40;;;;;;5077681;28;20115;-53
2023/10/23 12:13:39;;;;;;;86.07;12.20;;;15.30;96.30;;;;;;5047805;28;20089;-53
2023/10/23 12:16:05;;;;;;;91.68;12.90;;;15.30;96.20;;;;;;5049849;28;20021;-52
2023/10/23 12:18:30;;;;;;;75.63;12.35;;;15.40;96.10;;;;;;5104210;28;20173;-53
2023/10/23 12:20:56;;;;;;;95.00;11.43;;;15.40;95.90;;;;;;5081710;28;20028;-52
2023/10/23 12:23:22;;;;;;;74.18;11.55;;;15.50;95.90;;;;;;5072599;28;20108;-52
2023/10/23 12:25:47;;;;;;;93.68;11.25;;;15.60;95.80;;;;;;5089759;28;20088;-52
2023/10/23 12:28:13;;;;;;;113.57;13.32;;;15.50;95.70;;;;;;5072175;28;20036;-53
2023/10/23 12:30:38;;;;;;;109.82;14.25;;;15.50;95.60;;;;;;5069138;28;20108;-53
2023/10/23 12:33:05;;;;;;;103.18;14.18;;;15.50;95.60;;;;;;5052707;28;20094;-52
2023/10/23 12:35:30;;;;;;;94.45;12.80;;;15.50;95.60;;;;;;5071802;28;20024;-53